Current Weather

Warsaw Muni

Warsaw, Indiana (KASW)

Report from: Thursday, April 25, 2024 12:35 AM EDT
Current time: Thursday, April 25, 2024 1:01 AM EDT

Nearby weather – Weather history – Daily summaries
Weather forecast

Temperature1.8°C (35.2°F)
Dew point-0.1°C (31.8°F)
Winds Calm
Visibility10 mi. (16.1 km)
Clouds Sky clear
Altimeter30.30 in.Hg (1026 mB)
Relative humidity87 %
Density altitude-1,951 ft. (-595 m)
Remarks Fully automated report
Automated weather observing station with precipitation discriminator
Flight conditions Visual Meteorological Conditions
Raw dataKASW 250435Z AUTO 00000KT 10SM CLR 01/00 A3030 RMK AO2 T00181001
An error has occurred. This application may no longer respond until reloaded. Reload 🗙